createdAt,value
2022-07-27T00:02:16.903Z,99543.28
2022-07-27T00:05:00.836Z,99556.31
2022-07-27T00:07:46.546Z,99572.63
2022-07-27T00:10:30.371Z,99573.09
2022-07-27T00:13:14.225Z,99575.44
2022-07-27T00:15:58.187Z,99544.66
2022-07-27T00:18:43.553Z,99576.25
2022-07-27T00:21:27.793Z,99580.84
2022-07-27T00:24:11.732Z,99568.00
2022-07-27T00:26:55.596Z,99563.84
2022-07-27T00:29:39.497Z,99574.63
2022-07-27T00:32:23.361Z,99528.47
2022-07-27T00:35:10.273Z,99570.72
2022-07-27T00:37:54.479Z,99560.09
2022-07-27T00:40:38.436Z,99567.34
2022-07-27T00:43:22.465Z,99557.72
2022-07-27T00:46:06.565Z,99559.72
2022-07-27T00:48:51.219Z,99565.09
2022-07-27T00:51:36.617Z,99547.94
2022-07-27T00:54:21.073Z,99553.66
2022-07-27T00:57:05.536Z,99562.09
2022-07-27T00:59:49.614Z,99487.16
2022-07-27T01:02:33.640Z,99528.81
2022-07-27T01:05:17.981Z,99556.75
2022-07-27T01:08:03.529Z,99546.53
2022-07-27T01:10:48.508Z,99558.44
2022-07-27T01:13:35.250Z,99560.47
2022-07-27T01:16:21.202Z,99556.75
2022-07-27T01:19:05.227Z,99547.56
2022-07-27T01:21:52.132Z,99542.50
2022-07-27T01:24:36.172Z,99527.41
2022-07-27T01:27:20.156Z,99536.31
2022-07-27T01:30:04.136Z,99539.69
2022-07-27T01:32:48.282Z,99538.69
2022-07-27T01:35:32.461Z,99528.47
2022-07-27T01:38:17.778Z,99555.84
2022-07-27T01:41:01.716Z,99554.81
2022-07-27T01:43:46.433Z,99534.03
2022-07-27T01:46:30.402Z,99539.22
2022-07-27T01:49:14.823Z,99540.22
2022-07-27T01:51:59.137Z,99537.66
2022-07-27T01:54:44.395Z,99522.03
2022-07-27T01:57:28.330Z,99538.19
2022-07-27T02:00:13.799Z,99533.03
2022-07-27T02:02:57.634Z,99500.97
2022-07-27T02:05:41.664Z,99534.06
2022-07-27T02:08:25.798Z,99524.22
2022-07-27T02:11:28.965Z,99494.72
2022-07-27T02:14:12.786Z,99539.03
2022-07-27T02:16:56.583Z,99536.03
2022-07-27T02:19:40.430Z,99535.19
2022-07-27T02:22:26.518Z,99527.28
2022-07-27T02:25:11.573Z,99532.34
2022-07-27T02:27:56.956Z,99526.97
2022-07-27T02:30:42.020Z,99530.69
2022-07-27T02:33:26.071Z,99515.56
2022-07-27T02:36:09.906Z,99516.06
2022-07-27T02:38:54.419Z,99530.50
2022-07-27T02:41:38.213Z,99530.66
2022-07-27T02:44:23.565Z,99539.75
2022-07-27T02:47:07.568Z,99534.91
2022-07-27T02:49:51.513Z,99533.22
2022-07-27T02:52:35.491Z,99535.06
2022-07-27T02:55:19.434Z,99518.44
2022-07-27T02:58:03.284Z,99540.59
2022-07-27T03:00:49.108Z,99516.38
2022-07-27T03:03:37.077Z,99540.28
2022-07-27T03:06:21.976Z,99531.19
2022-07-27T03:09:06.345Z,99547.31
2022-07-27T03:11:50.273Z,99504.97
2022-07-27T03:14:34.274Z,99544.47
2022-07-27T03:17:19.563Z,99536.22
2022-07-27T03:20:03.762Z,99538.06
2022-07-27T03:22:48.975Z,99497.25
2022-07-27T03:25:32.916Z,99539.41
2022-07-27T03:28:17.093Z,99533.03
2022-07-27T03:31:01.289Z,99543.56
2022-07-27T03:33:46.735Z,99527.44
2022-07-27T03:36:30.818Z,99529.25
2022-07-27T03:39:15.214Z,99533.25
2022-07-27T03:41:59.329Z,99529.06
2022-07-27T03:44:43.482Z,99535.53
2022-07-27T03:47:27.384Z,99529.00
2022-07-27T03:50:12.729Z,99531.16
2022-07-27T03:52:56.605Z,99527.72
2022-07-27T03:55:40.592Z,99510.88
2022-07-27T03:58:24.487Z,99528.22
2022-07-27T04:01:08.387Z,99519.06
2022-07-27T04:03:52.334Z,99534.03
2022-07-27T04:06:37.783Z,99529.25
2022-07-27T04:09:23.129Z,99531.97
2022-07-27T04:12:09.646Z,99533.47
2022-07-27T04:14:53.447Z,99528.50
2022-07-27T04:17:54.169Z,99504.13
2022-07-27T04:20:41.164Z,99534.75
2022-07-27T04:23:26.501Z,99549.19
2022-07-27T04:26:10.369Z,99549.41
2022-07-27T04:28:54.247Z,99559.72
2022-07-27T04:31:38.222Z,99551.09
2022-07-27T04:34:22.309Z,99552.38
2022-07-27T04:37:06.290Z,99561.31
2022-07-27T04:39:51.643Z,99545.75
2022-07-27T04:42:35.482Z,99543.75
2022-07-27T04:45:19.416Z,99549.50
2022-07-27T04:48:07.420Z,99524.06
2022-07-27T04:50:51.372Z,99554.19
2022-07-27T04:53:36.895Z,99550.22
2022-07-27T04:56:39.224Z,99548.19
2022-07-27T04:59:23.030Z,99553.38
2022-07-27T05:02:06.893Z,99551.00
2022-07-27T05:04:52.317Z,99543.22
2022-07-27T05:07:36.724Z,99556.03
2022-07-27T05:10:20.891Z,99561.13
2022-07-27T05:13:07.441Z,99559.66
2022-07-27T05:15:55.545Z,99561.03
2022-07-27T05:18:41.020Z,99559.22
2022-07-27T05:21:25.211Z,99551.91
2022-07-27T05:24:10.297Z,99528.94
2022-07-27T05:26:54.284Z,99568.19
2022-07-27T05:29:39.578Z,99552.31
2022-07-27T05:32:23.903Z,99567.41
2022-07-27T05:35:09.162Z,99564.44
2022-07-27T05:37:53.031Z,99570.72
2022-07-27T05:40:37.001Z,99576.16
2022-07-27T05:43:20.883Z,99578.22
2022-07-27T05:46:06.255Z,99565.84
2022-07-27T05:48:50.876Z,99541.84
2022-07-27T05:51:34.846Z,99577.59
2022-07-27T05:54:19.478Z,99580.66
2022-07-27T05:57:03.431Z,99549.31
2022-07-27T05:59:47.360Z,99579.72
2022-07-27T06:02:32.685Z,99571.31
2022-07-27T06:05:17.219Z,99557.13
2022-07-27T06:08:00.918Z,99564.56
2022-07-27T06:10:45.134Z,99569.84
2022-07-27T06:13:29.207Z,99530.44
2022-07-27T06:16:13.399Z,99557.63
2022-07-27T06:18:58.795Z,99535.63
2022-07-27T06:21:43.369Z,99563.53
2022-07-27T06:24:27.255Z,99554.25
2022-07-27T06:27:11.124Z,99574.78
2022-07-27T06:29:55.263Z,99572.28
2022-07-27T06:32:39.333Z,99570.81
2022-07-27T06:35:24.692Z,99577.50
2022-07-27T06:38:09.581Z,99572.66
2022-07-27T06:40:54.219Z,99568.63
2022-07-27T06:43:38.210Z,99577.81
2022-07-27T06:46:22.239Z,99575.00
2022-07-27T06:49:06.589Z,99569.97
2022-07-27T06:51:51.986Z,99541.50
2022-07-27T06:54:36.036Z,99570.63
2022-07-27T06:57:19.981Z,99576.91
2022-07-27T07:00:04.202Z,99555.78
2022-07-27T07:02:55.599Z,99571.50
2022-07-27T07:05:43.990Z,99567.41
2022-07-27T07:08:29.204Z,99571.38
2022-07-27T07:11:14.223Z,99573.34
2022-07-27T07:13:58.088Z,99560.53
2022-07-27T07:16:41.971Z,99577.56
2022-07-27T07:19:25.883Z,99563.41
2022-07-27T07:22:09.814Z,99565.28
2022-07-27T07:24:59.349Z,99557.41
2022-07-27T07:27:47.171Z,99566.13
2022-07-27T07:30:31.867Z,99550.97
2022-07-27T07:33:16.177Z,99578.09
2022-07-27T07:36:14.192Z,99569.69
2022-07-27T07:39:00.081Z,99499.72
2022-07-27T07:41:45.381Z,99562.09
2022-07-27T07:44:29.323Z,99568.75
2022-07-27T07:47:13.226Z,99485.31
2022-07-27T07:49:57.197Z,99559.31
2022-07-27T07:52:41.353Z,99575.03
2022-07-27T07:55:27.802Z,99569.22
2022-07-27T07:58:13.751Z,99576.03
2022-07-27T08:00:57.748Z,99566.63
2022-07-27T08:03:41.659Z,99571.66
2022-07-27T08:06:28.972Z,99566.44
2022-07-27T08:09:15.174Z,99568.75
2022-07-27T08:11:59.368Z,99562.47
2022-07-27T08:14:44.541Z,99566.69
2022-07-27T08:17:28.383Z,99568.75
2022-07-27T08:20:13.807Z,99467.41
2022-07-27T08:22:57.713Z,99560.97
2022-07-27T08:25:41.713Z,99562.09
2022-07-27T08:28:25.786Z,99563.34
2022-07-27T08:31:15.272Z,99544.44
2022-07-27T08:34:02.912Z,99572.09
2022-07-27T08:36:46.785Z,99569.47
2022-07-27T08:40:35.371Z,99573.41
2022-07-27T08:42:34.632Z,99570.09
2022-07-27T08:45:20.548Z,99572.53
2022-07-27T08:48:06.925Z,99575.44
2022-07-27T08:50:51.022Z,99572.03
2022-07-27T08:53:53.876Z,99580.91
2022-07-27T08:56:38.561Z,99586.47
2022-07-27T08:59:22.448Z,99592.00
2022-07-27T09:02:12.064Z,99590.00
2022-07-27T09:04:57.900Z,99586.47
2022-07-27T09:07:41.737Z,99578.38
2022-07-27T09:10:38.363Z,99586.38
2022-07-27T09:13:24.798Z,99593.31
2022-07-27T09:16:19.601Z,99597.88
2022-07-27T09:19:07.318Z,99583.56
2022-07-27T09:21:52.709Z,99590.66
2022-07-27T09:24:46.599Z,99587.94
2022-07-27T09:27:32.116Z,99585.13
2022-07-27T09:30:17.911Z,99592.47
2022-07-27T09:33:06.138Z,99592.78
2022-07-27T09:35:59.480Z,99586.88
2022-07-27T09:39:01.767Z,99590.06
2022-07-27T09:41:48.287Z,99588.56
2022-07-27T09:44:42.250Z,99570.34
2022-07-27T09:47:30.029Z,99591.63
2022-07-27T09:50:21.693Z,99589.47
2022-07-27T09:53:41.557Z,99583.03
2022-07-27T09:56:27.429Z,99593.78
2022-07-27T09:59:19.082Z,99596.88
2022-07-27T10:02:03.159Z,99561.06
2022-07-27T10:04:48.791Z,99592.41
2022-07-27T10:07:32.891Z,99592.81
2022-07-27T10:10:17.547Z,99592.22
2022-07-27T10:13:02.871Z,99601.78
2022-07-27T10:15:47.024Z,99597.31
2022-07-27T10:18:55.509Z,99589.13
2022-07-27T10:21:41.320Z,99596.00
2022-07-27T10:24:28.869Z,99600.06
2022-07-27T10:27:23.356Z,99599.81
2022-07-27T10:30:09.654Z,99580.22
2022-07-27T10:32:53.751Z,99593.59
2022-07-27T10:35:37.719Z,99570.41
2022-07-27T10:38:21.810Z,99595.41
2022-07-27T10:41:24.345Z,99594.47
2022-07-27T10:44:30.633Z,99595.78
2022-07-27T10:47:29.997Z,99605.03
2022-07-27T10:50:26.231Z,99594.66
2022-07-27T10:53:15.063Z,99600.31
2022-07-27T10:55:58.970Z,99594.53
2022-07-27T10:59:00.793Z,99593.53
2022-07-27T11:01:58.473Z,99589.94
2022-07-27T11:04:48.621Z,99604.56
2022-07-27T11:07:44.158Z,99482.97
2022-07-27T11:10:30.305Z,99598.88
2022-07-27T11:13:14.852Z,99584.72
2022-07-27T11:16:22.977Z,99603.56
2022-07-27T11:19:07.638Z,99599.78
2022-07-27T11:21:53.992Z,99575.13
2022-07-27T11:24:38.263Z,99589.94
2022-07-27T11:27:25.187Z,99585.56
2022-07-27T11:30:22.903Z,99591.09
2022-07-27T11:33:07.366Z,99602.66
2022-07-27T11:35:55.383Z,99567.69
2022-07-27T11:38:53.100Z,99593.72
2022-07-27T11:42:07.843Z,99568.28
2022-07-27T11:44:44.860Z,99571.38
2022-07-27T11:47:30.872Z,99559.94
2022-07-27T11:50:15.712Z,99577.75
2022-07-27T11:53:01.947Z,99578.59
2022-07-27T11:55:51.425Z,99586.50
2022-07-27T11:58:35.399Z,99590.25
2022-07-27T12:01:28.816Z,99568.28
2022-07-27T12:04:16.336Z,99580.59
2022-07-27T12:07:10.804Z,99584.56
2022-07-27T12:09:57.024Z,99554.28
2022-07-27T12:12:42.308Z,99580.78
2022-07-27T12:15:45.376Z,99580.06
2022-07-27T12:18:42.921Z,99581.97
2022-07-27T12:21:27.592Z,99572.94
2022-07-27T12:24:16.185Z,99540.38
2022-07-27T12:27:08.516Z,99575.81
2022-07-27T12:30:01.075Z,99571.59
2022-07-27T12:32:46.649Z,99571.38
2022-07-27T12:35:37.359Z,99572.00
2022-07-27T12:38:22.948Z,99567.19
2022-07-27T12:41:07.003Z,99565.41
2022-07-27T12:44:06.611Z,99567.00
2022-07-27T12:47:01.760Z,99562.91
2022-07-27T12:49:46.688Z,99570.41
2022-07-27T12:52:30.751Z,99564.22
2022-07-27T12:55:16.052Z,99563.56
2022-07-27T12:58:00.189Z,99562.88
2022-07-27T13:00:44.375Z,99573.06
2022-07-27T13:03:29.756Z,99566.34
2022-07-27T13:06:14.176Z,99480.03
2022-07-27T13:08:58.091Z,99566.81
2022-07-27T13:11:46.193Z,99568.47
2022-07-27T13:14:31.721Z,99568.78
2022-07-27T13:17:15.727Z,99578.09
2022-07-27T13:20:01.041Z,99564.59
2022-07-27T13:22:47.956Z,99543.28
2022-07-27T13:25:32.107Z,99555.00
2022-07-27T13:28:15.931Z,99567.00
2022-07-27T13:30:59.938Z,99555.69
2022-07-27T13:33:43.973Z,99576.81
2022-07-27T13:36:29.357Z,99571.63
2022-07-27T13:39:15.389Z,99557.25
2022-07-27T13:41:59.770Z,99586.22
2022-07-27T13:45:03.939Z,99581.78
2022-07-27T13:47:48.727Z,99575.59
2022-07-27T13:50:32.643Z,99581.59
2022-07-27T13:53:19.066Z,99574.97
2022-07-27T13:56:03.760Z,99583.19
2022-07-27T13:58:47.909Z,99578.91
2022-07-27T14:01:32.546Z,99584.53
2022-07-27T14:04:16.430Z,99580.03
2022-07-27T14:07:02.878Z,99585.44
2022-07-27T14:10:05.582Z,99569.31
2022-07-27T14:12:49.439Z,99473.84
2022-07-27T14:15:33.424Z,99566.09
2022-07-27T14:18:17.357Z,99565.66
2022-07-27T14:21:04.055Z,99566.97
2022-07-27T14:23:48.534Z,99561.56
2022-07-27T14:26:33.720Z,99551.50
2022-07-27T14:29:17.500Z,99561.19
2022-07-27T14:32:01.532Z,99565.25
2022-07-27T14:34:45.631Z,99572.34
2022-07-27T14:37:29.664Z,99553.78
2022-07-27T14:40:15.378Z,99561.88
2022-07-27T14:43:00.737Z,99565.66
2022-07-27T14:45:46.328Z,99557.06
2022-07-27T14:49:04.498Z,99534.53
2022-07-27T14:51:35.849Z,99535.81
2022-07-27T14:54:19.917Z,99540.84
2022-07-27T14:57:03.877Z,99534.00
2022-07-27T14:59:49.355Z,99573.00
2022-07-27T15:02:33.262Z,99543.28
2022-07-27T15:05:17.699Z,99545.66
2022-07-27T15:08:01.530Z,99554.88
2022-07-27T15:10:46.310Z,99538.53
2022-07-27T15:13:30.258Z,99544.91
2022-07-27T15:16:15.608Z,99553.66
2022-07-27T15:18:59.516Z,99544.06
2022-07-27T15:21:43.382Z,99552.38
2022-07-27T15:24:27.424Z,99552.94
2022-07-27T15:27:11.264Z,99557.41
2022-07-27T15:29:55.067Z,99559.31
2022-07-27T15:32:40.455Z,99549.28
2022-07-27T15:35:24.642Z,99556.53
2022-07-27T15:38:08.609Z,99547.47
2022-07-27T15:40:52.509Z,99550.75
2022-07-27T15:43:36.348Z,99551.22
2022-07-27T15:46:27.394Z,99555.00
2022-07-27T15:49:13.598Z,99559.50
2022-07-27T15:51:57.865Z,99569.94
2022-07-27T15:54:45.355Z,99565.66
2022-07-27T15:57:29.548Z,99573.03
2022-07-27T16:00:14.624Z,99575.84
2022-07-27T16:02:59.071Z,99542.25
2022-07-27T16:05:47.696Z,99563.03
2022-07-27T16:08:31.781Z,99544.88
2022-07-27T16:11:15.818Z,99568.56
2022-07-27T16:13:59.667Z,99579.22
2022-07-27T16:16:44.756Z,99559.56
2022-07-27T16:19:28.726Z,99579.97
2022-07-27T16:22:14.136Z,99588.81
2022-07-27T16:24:57.929Z,99581.22
2022-07-27T16:27:41.804Z,99581.72
2022-07-27T16:30:28.416Z,99593.69
2022-07-27T16:33:12.237Z,99602.66
2022-07-27T16:35:56.134Z,99594.88
2022-07-27T16:38:49.846Z,99597.53
2022-07-27T16:41:34.777Z,99597.84
2022-07-27T16:44:20.607Z,99596.34
2022-07-27T16:47:06.998Z,99596.34
2022-07-27T16:49:51.153Z,99578.50
2022-07-27T16:52:35.164Z,99579.38
2022-07-27T16:55:21.280Z,99602.25
2022-07-27T16:58:09.452Z,99611.03
2022-07-27T17:00:53.984Z,99596.38
2022-07-27T17:03:38.836Z,99604.31
2022-07-27T17:06:23.129Z,99607.00
2022-07-27T17:09:07.070Z,99616.25
2022-07-27T17:11:52.528Z,99616.47
2022-07-27T17:14:38.198Z,99614.97
2022-07-27T17:17:22.209Z,99619.97
2022-07-27T17:20:07.095Z,99629.41
2022-07-27T17:22:50.954Z,99537.50
2022-07-27T17:25:34.897Z,99613.75
2022-07-27T17:28:20.743Z,99629.63
2022-07-27T17:31:05.164Z,99627.47
2022-07-27T17:33:49.212Z,99638.78
2022-07-27T17:36:33.091Z,99627.13
2022-07-27T17:39:17.240Z,99638.38
2022-07-27T17:42:01.137Z,99631.28
2022-07-27T17:44:46.417Z,99620.63
2022-07-27T17:47:30.295Z,99625.44
2022-07-27T17:50:14.192Z,99604.97
2022-07-27T17:52:59.332Z,99622.28
2022-07-27T17:55:43.120Z,99627.94
2022-07-27T17:58:30.269Z,99632.13
2022-07-27T18:01:16.208Z,99628.38
2022-07-27T18:04:00.196Z,99641.09
2022-07-27T18:06:44.181Z,99641.72
2022-07-27T18:09:28.050Z,99612.03
2022-07-27T18:12:11.928Z,99633.72
2022-07-27T18:15:13.695Z,99650.88
2022-07-27T18:17:59.043Z,99652.97
2022-07-27T18:20:43.008Z,99645.44
2022-07-27T18:23:27.019Z,99634.56
2022-07-27T18:26:11.154Z,99666.38
2022-07-27T18:28:56.200Z,99661.34
2022-07-27T18:31:40.155Z,99652.38
2022-07-27T18:34:25.682Z,99655.81
2022-07-27T18:37:09.486Z,99658.81
2022-07-27T18:39:53.289Z,99670.91
2022-07-27T18:42:37.303Z,99678.66
2022-07-27T18:45:21.316Z,99675.66
2022-07-27T18:48:10.090Z,99689.66
2022-07-27T18:50:55.559Z,99697.59
2022-07-27T18:53:39.570Z,99686.78
2022-07-27T18:56:23.468Z,99691.13
2022-07-27T18:59:07.534Z,99690.47
2022-07-27T19:01:51.508Z,99699.69
2022-07-27T19:04:35.771Z,99698.94
2022-07-27T19:07:22.024Z,99702.13
2022-07-27T19:10:08.930Z,99701.94
2022-07-27T19:12:53.373Z,99706.34
2022-07-27T19:15:37.668Z,99703.03
2022-07-27T19:18:23.657Z,99705.47
2022-07-27T19:21:07.804Z,99707.91
2022-07-27T19:23:53.126Z,99688.31
2022-07-27T19:26:37.037Z,99698.41
2022-07-27T19:29:22.759Z,99703.31
2022-07-27T19:32:07.929Z,99714.59
2022-07-27T19:34:51.781Z,99691.56
2022-07-27T19:37:35.858Z,99717.56
2022-07-27T19:43:25.277Z,99719.94
2022-07-27T19:46:10.212Z,99715.34
2022-07-27T19:48:54.977Z,99724.53
2022-07-27T19:51:39.002Z,99722.41
2022-07-27T19:54:22.845Z,99717.84
2022-07-27T19:57:08.182Z,99729.50
2022-07-27T19:59:55.880Z,99743.47
2022-07-27T20:02:40.589Z,99745.88
2022-07-27T20:05:24.607Z,99743.19
2022-07-27T20:08:08.409Z,99747.03
2022-07-27T20:10:52.228Z,99742.78
2022-07-27T20:13:37.587Z,99755.38
2022-07-27T20:16:21.502Z,99754.34
2022-07-27T20:19:05.653Z,99751.44
2022-07-27T20:21:49.530Z,99760.19
2022-07-27T20:24:33.538Z,99764.53
2022-07-27T20:27:17.435Z,99760.94
2022-07-27T20:30:02.729Z,99756.31
2022-07-27T20:32:49.009Z,99736.84
2022-07-27T20:35:37.740Z,99766.00
2022-07-27T20:38:22.009Z,99745.25
2022-07-27T20:41:06.103Z,99760.03
2022-07-27T20:43:50.160Z,99760.34
2022-07-27T20:46:37.949Z,99761.44
2022-07-27T20:49:22.045Z,99758.25
2022-07-27T20:52:07.694Z,99758.63
2022-07-27T20:54:51.748Z,99752.81
2022-07-27T20:57:35.902Z,99758.94
2022-07-27T21:00:19.993Z,99754.78
2022-07-27T21:03:05.232Z,99738.63
2022-07-27T21:05:49.053Z,99758.38
2022-07-27T21:08:33.002Z,99759.53
2022-07-27T21:11:16.982Z,99756.22
2022-07-27T21:14:01.232Z,99758.47
2022-07-27T21:16:45.277Z,99765.03
2022-07-27T21:19:30.587Z,99769.03
2022-07-27T21:22:14.516Z,99771.13
2022-07-27T21:24:58.868Z,99772.28
2022-07-27T21:27:43.756Z,99771.94
2022-07-27T21:30:28.820Z,99728.06
2022-07-27T21:33:13.084Z,99768.72
2022-07-27T21:35:58.434Z,99749.94
2022-07-27T21:38:42.278Z,99771.03
2022-07-27T21:41:26.185Z,99775.53
2022-07-27T21:44:10.270Z,99777.44
2022-07-27T21:46:54.445Z,99790.84
2022-07-27T21:49:38.360Z,99785.44
2022-07-27T21:52:23.637Z,99780.78
2022-07-27T21:55:07.984Z,99798.38
2022-07-27T21:57:52.230Z,99791.09
2022-07-27T22:00:36.255Z,99791.22
2022-07-27T22:03:20.459Z,99788.75
2022-07-27T22:06:04.433Z,99782.59
2022-07-27T22:08:50.612Z,99802.34
2022-07-27T22:11:34.547Z,99796.97
2022-07-27T22:14:18.472Z,99808.94
2022-07-27T22:17:03.160Z,99810.41
2022-07-27T22:19:47.091Z,99812.53
2022-07-27T22:22:30.865Z,99817.97
2022-07-27T22:25:16.697Z,99806.00
2022-07-27T22:28:00.520Z,99804.56
2022-07-27T22:30:44.421Z,99808.72
2022-07-27T22:33:48.268Z,99816.69
2022-07-27T22:36:32.691Z,99815.16
2022-07-27T22:39:17.059Z,99822.16
2022-07-27T22:42:02.587Z,99823.44
2022-07-27T22:44:46.567Z,99828.81
2022-07-27T22:47:30.419Z,99833.03
2022-07-27T22:50:18.167Z,99817.06
2022-07-27T22:53:03.033Z,99839.94
2022-07-27T22:55:46.782Z,99833.19
2022-07-27T22:58:32.104Z,99832.75
2022-07-27T23:01:45.624Z,99796.13
2022-07-27T23:04:19.930Z,99816.44
2022-07-27T23:07:03.879Z,99827.34
2022-07-27T23:09:47.657Z,99836.56
2022-07-27T23:12:31.604Z,99798.84
2022-07-27T23:15:16.834Z,99829.84
2022-07-27T23:18:00.845Z,99835.56
2022-07-27T23:20:45.721Z,99820.47
2022-07-27T23:23:29.805Z,99827.50
2022-07-27T23:26:20.207Z,99829.94
2022-07-27T23:29:07.096Z,99819.53
2022-07-27T23:31:52.437Z,99805.09
2022-07-27T23:34:36.303Z,99820.72
2022-07-27T23:37:20.195Z,99720.66
2022-07-27T23:40:04.855Z,99799.28
2022-07-27T23:42:49.124Z,99808.88
2022-07-27T23:45:34.669Z,99803.53
2022-07-27T23:48:19.969Z,99769.41
2022-07-27T23:51:09.271Z,99797.69
2022-07-27T23:53:53.105Z,99796.72
2022-07-27T23:56:36.968Z,99793.16
2022-07-27T23:59:20.899Z,99789.16
